Time;durP1;ratioP1;P1;durP2;ratioP2;P2;SDS_P1;SDS_P2;PMS_P1;PMS_P2;Temp;Humidity;BMP_temperature;BMP_pressure;BME280_temperature;BME280_humidity;BME280_pressure;Samples;Min_cycle;Max_cycle;Signal;HPM_P1;HPM_P2
2023/05/29 00:01:42;;;;;;;11.60;3.57;;;15.50;65.00;;;18.17;46.30;102285.94;5055321;28;20194;-67
2023/05/29 00:04:10;;;;;;;9.90;2.87;;;15.40;65.20;;;18.12;46.11;102280.31;5053647;28;20289;-65
2023/05/29 00:06:37;;;;;;;10.37;3.40;;;15.30;65.20;;;18.06;46.41;102281.91;5054365;28;20193;-66
2023/05/29 00:09:05;;;;;;;11.00;3.77;;;15.30;65.40;;;18.04;46.52;102280.44;5038277;28;20269;-67
2023/05/29 00:11:33;;;;;;;8.67;3.17;;;15.30;65.80;;;18.01;46.91;102281.66;5034319;28;20193;-66
2023/05/29 00:14:00;;;;;;;10.03;3.10;;;15.20;66.00;;;17.99;46.55;102291.66;5035912;28;20197;-66
2023/05/29 00:16:29;;;;;;;8.47;3.70;;;15.20;66.00;;;18.00;46.67;102292.47;5054362;28;20220;-66
2023/05/29 00:18:56;;;;;;;11.30;3.30;;;15.20;66.20;;;18.00;46.67;102292.47;5047138;28;20222;-66
2023/05/29 00:21:23;;;;;;;8.97;3.37;;;15.20;66.10;;;18.00;46.71;102289.81;5038889;28;20206;-66
2023/05/29 00:23:50;;;;;;;12.40;3.27;;;15.20;65.90;;;17.97;46.47;102291.00;5033963;28;20191;-66
2023/05/29 00:26:18;;;;;;;11.27;4.17;;;15.20;65.90;;;17.95;46.65;102289.53;5034281;28;20274;-66
2023/05/29 00:28:45;;;;;;;10.07;2.57;;;15.20;66.30;;;17.94;46.51;102295.88;5034653;28;20353;-66
2023/05/29 00:31:12;;;;;;;11.07;3.37;;;15.10;66.10;;;17.93;46.63;102296.88;5034064;28;20269;-66
2023/05/29 00:33:39;;;;;;;9.93;3.93;;;15.10;66.00;;;17.92;46.83;102297.91;5033866;28;20277;-65
2023/05/29 00:36:08;;;;;;;12.30;3.50;;;15.10;66.30;;;17.91;46.86;102296.25;5033897;28;20214;-67
2023/05/29 00:38:35;;;;;;;11.53;3.50;;;15.10;66.40;;;17.89;46.52;102301.75;5033997;28;20293;-65
2023/05/29 00:41:02;;;;;;;11.87;2.80;;;15.10;66.40;;;17.88;46.70;102299.25;5033914;28;20632;-66
2023/05/29 00:43:31;;;;;;;12.37;3.27;;;15.00;66.20;;;17.87;46.94;102303.78;5033553;28;20186;-66
2023/05/29 00:45:58;;;;;;;7.20;3.03;;;15.00;66.40;;;17.87;46.65;102302.97;5033913;28;20241;-67
2023/05/29 00:48:26;;;;;;;13.07;4.00;;;15.00;66.30;;;17.88;46.93;102310.75;5051651;28;20194;-64
2023/05/29 00:50:53;;;;;;;10.80;3.17;;;15.00;66.60;;;17.89;46.78;102311.59;5053979;28;20213;-65
2023/05/29 00:53:23;;;;;;;8.93;3.10;;;15.00;66.40;;;17.88;46.39;102305.44;5053503;28;20209;-67
2023/05/29 00:55:51;;;;;;;7.70;2.93;;;15.10;66.40;;;17.87;46.76;102324.28;5053554;28;20216;-66
2023/05/29 00:58:19;;;;;;;8.43;3.17;;;15.00;66.10;;;17.83;46.57;102318.47;5053634;28;20304;-65
2023/05/29 01:00:48;;;;;;;11.70;3.00;;;15.00;66.10;;;17.82;46.55;102324.00;5051339;28;20185;-66
2023/05/29 01:03:16;;;;;;;10.77;3.60;;;15.00;66.10;;;17.77;46.77;102318.38;5039793;28;20741;-64
2023/05/29 01:05:44;;;;;;;14.67;3.60;;;14.90;66.20;;;17.74;46.77;102318.72;5041445;28;20364;-64
2023/05/29 01:08:12;;;;;;;14.27;4.17;;;14.90;66.60;;;17.72;47.06;102320.75;5053405;28;20197;-65
2023/05/29 01:10:39;;;;;;;8.50;3.13;;;14.90;66.50;;;17.70;47.07;102320.94;5052474;28;20693;-64
2023/05/29 01:13:17;;;;;;;10.07;3.80;;;14.90;66.60;;;17.68;46.98;102327.47;5053383;28;20194;-65
2023/05/29 01:15:54;;;;;;;13.07;3.63;;;14.80;66.50;;;17.66;47.09;102327.66;5052721;28;20209;-65
2023/05/29 01:18:41;;;;;;;12.27;3.43;;;14.80;67.40;;;17.58;46.85;102317.91;5033846;28;20241;-67
2023/05/29 01:21:22;;;;;;;11.50;3.37;;;14.80;66.50;;;17.56;46.88;102322.59;5033453;28;20563;-64
2023/05/29 01:24:24;;;;;;;11.00;3.37;;;14.80;66.70;;;17.46;47.04;102324.66;5033105;28;20198;-67
2023/05/29 01:26:58;;;;;;;13.57;3.53;;;14.70;66.60;;;17.47;46.89;102330.81;5033401;28;20284;-66
2023/05/29 01:29:29;;;;;;;13.80;3.70;;;14.70;66.70;;;17.47;47.41;102328.94;5033785;28;20189;-65
2023/05/29 01:31:58;;;;;;;11.53;4.00;;;14.70;66.90;;;17.47;47.21;102326.28;5034450;28;20190;-66
2023/05/29 01:34:25;;;;;;;10.90;3.67;;;14.70;66.90;;;17.46;47.32;102332.63;5033092;28;20545;-64
2023/05/29 01:36:52;;;;;;;13.73;3.27;;;14.60;66.80;;;17.44;47.34;102326.66;5033405;28;20734;-64
2023/05/29 01:39:21;;;;;;;17.37;3.90;;;14.60;66.90;;;17.42;47.30;102336.63;5034007;28;20214;-65
2023/05/29 01:41:49;;;;;;;12.87;4.10;;;14.60;67.00;;;17.42;47.46;102331.31;5033359;28;20222;-64
2023/05/29 01:44:18;;;;;;;10.63;3.87;;;14.60;66.80;;;17.41;46.99;102324.34;5033060;28;20293;-64
2023/05/29 01:46:46;;;;;;;10.33;3.53;;;14.60;66.90;;;17.40;47.26;102333.34;5033604;28;20237;-65
2023/05/29 01:49:15;;;;;;;8.23;3.23;;;14.60;67.10;;;17.41;47.54;102329.69;5041497;28;20190;-64
2023/05/29 01:51:42;;;;;;;8.80;2.87;;;14.60;67.20;;;17.43;47.44;102333.00;5053116;28;20197;-66
2023/05/29 01:54:11;;;;;;;8.23;3.70;;;14.60;66.90;;;17.44;47.46;102344.47;5053349;28;20213;-66
2023/05/29 01:56:38;;;;;;;8.83;3.27;;;14.70;67.30;;;17.45;47.31;102330.97;5053240;28;20273;-65
2023/05/29 01:59:06;;;;;;;12.13;2.83;;;14.70;66.90;;;17.47;47.11;102336.94;5053106;28;20267;-65
2023/05/29 02:01:34;;;;;;;9.87;2.97;;;14.80;66.90;;;17.47;47.54;102339.59;5056090;28;20264;-66
2023/05/29 02:04:01;;;;;;;8.23;2.80;;;14.80;66.90;;;17.49;47.32;102348.25;5056707;28;20277;-66
2023/05/29 02:06:28;;;;;;;9.60;2.90;;;14.80;66.30;;;17.50;47.26;102344.56;5044099;28;20198;-66
2023/05/29 02:08:55;;;;;;;5.47;2.73;;;14.80;66.30;;;17.50;47.05;102341.91;5037238;28;20390;-65
2023/05/29 02:11:22;;;;;;;10.03;2.87;;;14.80;66.10;;;17.50;47.20;102341.91;5037019;28;20195;-64
2023/05/29 02:13:49;;;;;;;8.53;2.40;;;14.80;66.30;;;17.49;46.72;102342.94;5051062;28;20210;-64
2023/05/29 02:16:16;;;;;;;8.20;3.00;;;14.80;66.00;;;17.48;47.16;102351.91;5048381;28;20284;-65
2023/05/29 02:18:45;;;;;;;9.77;3.70;;;14.80;66.20;;;17.50;46.79;102343.75;5056631;28;20206;-65
2023/05/29 02:21:12;;;;;;;7.33;2.53;;;14.80;66.00;;;17.49;47.19;102348.25;5043146;28;20723;-65
2023/05/29 02:23:39;;;;;;;9.60;2.87;;;14.70;66.40;;;17.49;47.25;102353.59;5036072;28;20190;-65
2023/05/29 02:26:07;;;;;;;8.33;2.73;;;14.80;66.50;;;17.50;47.05;102357.88;5036775;28;20236;-66
2023/05/29 02:28:34;;;;;;;8.30;2.73;;;14.70;66.00;;;17.52;46.54;102357.72;5036906;28;20277;-65
2023/05/29 02:31:02;;;;;;;8.90;2.73;;;14.80;65.80;;;17.51;46.66;102362.25;5036432;28;20198;-65
2023/05/29 02:33:29;;;;;;;8.90;3.23;;;14.70;65.90;;;17.51;46.33;102359.59;5036120;28;20248;-65
2023/05/29 02:35:58;;;;;;;9.47;2.87;;;14.70;65.40;;;17.48;46.54;102362.56;5053907;28;20296;-64
2023/05/29 02:38:25;;;;;;;11.53;3.03;;;14.70;65.70;;;17.46;46.49;102372.56;5056109;28;20217;-65
2023/05/29 02:40:52;;;;;;;10.17;2.83;;;14.70;65.60;;;17.46;46.24;102369.06;5056325;28;20701;-64
2023/05/29 02:43:22;;;;;;;7.47;2.77;;;14.70;65.60;;;17.43;46.58;102362.28;5055998;28;20263;-63
2023/05/29 02:45:49;;;;;;;13.33;2.83;;;14.60;65.50;;;17.40;46.44;102367.94;5056157;28;20210;-63
2023/05/29 02:48:16;;;;;;;9.70;3.07;;;14.60;65.60;;;17.37;46.46;102360.34;5054376;28;20201;-64
2023/05/29 02:50:43;;;;;;;8.20;2.23;;;14.50;65.40;;;17.32;46.28;102367.19;5036284;28;20259;-64
2023/05/29 02:53:11;;;;;;;10.30;3.63;;;14.50;65.20;;;17.27;46.37;102364.25;5035944;28;20194;-64
2023/05/29 02:55:38;;;;;;;7.97;2.83;;;14.50;65.30;;;17.20;46.41;102364.13;5036244;28;20206;-64
2023/05/29 02:58:05;;;;;;;9.47;3.07;;;14.40;65.60;;;17.17;46.54;102366.31;5053844;28;20551;-65
2023/05/29 03:00:32;;;;;;;7.20;2.80;;;14.40;65.70;;;17.12;46.24;102364.19;5056064;28;20214;-64
2023/05/29 03:03:00;;;;;;;8.90;2.83;;;14.40;65.20;;;17.07;46.75;102363.06;5052342;28;20301;-67
2023/05/29 03:05:27;;;;;;;7.63;3.23;;;14.30;65.50;;;17.03;46.19;102359.91;5041840;28;20222;-66
2023/05/29 03:07:55;;;;;;;10.97;3.20;;;14.30;65.20;;;16.95;46.39;102354.63;5055901;28;20563;-65
2023/05/29 03:10:23;;;;;;;7.90;3.00;;;14.20;65.20;;;16.89;46.77;102360.69;5055891;28;20228;-65
2023/05/29 03:12:51;;;;;;;10.53;2.70;;;14.10;65.60;;;16.87;46.80;102362.69;5052915;28;20678;-65
2023/05/29 03:15:20;;;;;;;11.67;3.10;;;14.10;65.80;;;16.86;46.73;102355.69;5048458;28;20213;-64
2023/05/29 03:17:47;;;;;;;6.60;2.83;;;14.10;65.50;;;16.83;46.63;102356.03;5055824;28;20202;-65
2023/05/29 03:20:15;;;;;;;6.77;2.50;;;14.00;65.40;;;16.80;46.76;102357.25;5055472;28;20221;-66
2023/05/29 03:22:42;;;;;;;9.23;2.57;;;14.00;65.50;;;16.77;46.94;102356.75;5054954;28;20226;-64
2023/05/29 03:25:09;;;;;;;5.70;2.27;;;13.90;65.80;;;16.75;46.54;102353.44;5035183;28;20292;-63
2023/05/29 03:27:38;;;;;;;13.10;3.23;;;14.00;65.70;;;16.72;46.94;102349.31;5035373;28;20282;-63
2023/05/29 03:30:07;;;;;;;8.23;3.00;;;14.00;66.30;;;16.73;47.34;102350.16;5035403;28;20274;-62
2023/05/29 03:32:34;;;;;;;11.43;3.27;;;13.90;66.20;;;16.73;46.94;102347.50;5035366;28;20222;-64
2023/05/29 03:35:01;;;;;;;10.90;3.30;;;13.90;65.80;;;16.72;46.34;102353.78;5035152;28;20746;-65
2023/05/29 03:37:29;;;;;;;8.17;3.10;;;13.90;66.30;;;16.67;46.61;102348.16;5034163;28;20198;-63
2023/05/29 03:39:56;;;;;;;12.43;3.03;;;13.90;65.60;;;16.64;46.72;102340.56;5035185;28;20265;-63
2023/05/29 03:42:23;;;;;;;10.30;2.77;;;13.80;65.50;;;16.60;46.57;102349.88;5037400;28;20290;-65
2023/05/29 03:44:51;;;;;;;9.93;3.00;;;13.70;65.60;;;16.54;46.46;102347.91;5054497;28;20373;-63
2023/05/29 03:47:18;;;;;;;6.83;2.43;;;13.70;65.60;;;16.50;46.46;102347.41;5055663;28;20277;-64
2023/05/29 03:49:45;;;;;;;7.93;2.93;;;13.70;65.90;;;16.50;46.71;102354.53;5055702;28;20242;-63
2023/05/29 03:52:12;;;;;;;6.20;2.70;;;13.70;66.00;;;16.48;46.67;102359.19;5055573;28;20607;-63
2023/05/29 03:54:39;;;;;;;9.23;3.20;;;13.60;65.90;;;16.50;47.06;102360.69;5036890;28;20268;-65
2023/05/29 03:57:06;;;;;;;8.93;2.27;;;13.60;66.10;;;16.51;46.80;102364.19;5035340;28;20611;-63
2023/05/29 03:59:33;;;;;;;9.60;2.63;;;13.60;66.00;;;16.51;46.39;102365.03;5036158;28;20215;-65
2023/05/29 04:02:02;;;;;;;7.67;2.90;;;13.60;65.80;;;16.52;46.71;102368.53;5048906;28;20276;-64
2023/05/29 04:04:30;;;;;;;8.83;2.63;;;13.60;65.80;;;16.50;46.67;102373.97;5056045;28;20642;-65
2023/05/29 04:06:57;;;;;;;9.07;3.13;;;13.60;65.90;;;16.50;46.63;102376.63;5056470;28;20231;-66
2023/05/29 04:09:24;;;;;;;8.40;2.90;;;13.70;65.90;;;16.49;46.81;102368.84;5056705;28;20265;-64
2023/05/29 04:11:51;;;;;;;7.90;2.93;;;13.60;65.90;;;16.52;46.54;102379.16;5057338;28;20312;-66
2023/05/29 04:14:18;;;;;;;11.47;3.13;;;13.70;66.20;;;16.55;46.75;102379.63;5056175;28;20328;-64
2023/05/29 04:16:46;;;;;;;5.87;2.47;;;13.60;65.50;;;16.56;46.47;102380.47;5057813;28;20561;-65
2023/05/29 04:19:14;;;;;;;7.03;2.60;;;13.70;65.80;;;16.55;46.52;102386.78;5056306;28;20221;-64
2023/05/29 04:21:42;;;;;;;9.23;3.00;;;13.70;65.80;;;16.56;46.65;102388.44;5057563;28;20740;-64
2023/05/29 04:24:09;;;;;;;11.73;2.93;;;13.70;65.60;;;16.59;46.58;102398.75;5041463;28;20367;-67
2023/05/29 04:26:40;;;;;;;10.83;3.03;;;13.70;65.50;;;16.60;46.43;102397.72;5039076;28;20233;-65
2023/05/29 04:29:08;;;;;;;10.87;2.73;;;13.70;65.40;;;16.60;46.34;102393.25;5037590;28;20202;-64
2023/05/29 04:31:37;;;;;;;8.83;3.33;;;13.70;65.30;;;16.59;46.43;102385.44;5034015;28;20609;-64
2023/05/29 04:34:04;;;;;;;8.40;2.97;;;13.70;65.10;;;16.58;46.47;102389.09;5033683;28;20252;-64
2023/05/29 04:36:33;;;;;;;10.97;2.90;;;13.70;65.10;;;16.60;46.53;102397.72;5033907;28;20221;-64
2023/05/29 04:39:00;;;;;;;7.63;2.90;;;13.70;65.30;;;16.60;46.12;102397.72;5034165;28;20246;-64
2023/05/29 04:41:30;;;;;;;7.97;2.87;;;13.70;65.10;;;16.60;46.04;102393.25;5052596;28;20243;-66
2023/05/29 04:43:58;;;;;;;9.07;3.73;;;13.70;64.80;;;16.60;45.98;102397.72;5053669;28;20190;-65
2023/05/29 04:46:25;;;;;;;8.10;3.30;;;13.70;65.10;;;16.63;46.24;102397.38;5053913;28;20193;-64
2023/05/29 04:48:53;;;;;;;8.67;2.97;;;13.70;65.00;;;16.65;45.60;102406.84;5053828;28;20244;-64
2023/05/29 04:51:20;;;;;;;6.13;2.67;;;13.70;64.60;;;16.63;45.72;102408.84;5034768;28;20257;-63
2023/05/29 04:53:51;;;;;;;15.00;3.50;;;13.70;64.40;;;16.62;45.64;102406.34;5033696;28;20190;-64
2023/05/29 04:56:18;;;;;;;11.43;3.57;;;13.70;64.30;;;16.59;45.59;102402.22;5034019;28;20213;-64
2023/05/29 04:58:45;;;;;;;8.63;3.07;;;13.70;64.60;;;16.57;45.66;102409.53;5033772;28;20277;-65
2023/05/29 05:01:14;;;;;;;14.17;3.57;;;13.70;64.40;;;16.57;45.69;102412.19;5051054;28;20284;-65
2023/05/29 05:03:42;;;;;;;11.27;3.50;;;13.70;64.50;;;16.58;45.54;102421.84;5053204;28;20664;-66
2023/05/29 05:06:10;;;;;;;8.87;3.00;;;13.70;64.60;;;16.61;45.59;102420.66;5053362;28;20218;-65
2023/05/29 05:08:37;;;;;;;8.23;2.83;;;13.70;64.40;;;16.61;45.62;102421.50;5053182;28;20190;-66
2023/05/29 05:11:06;;;;;;;6.90;2.33;;;13.70;64.50;;;16.65;45.59;102432.59;5052761;28;20276;-64
2023/05/29 05:13:33;;;;;;;8.93;2.53;;;13.70;64.60;;;16.68;45.54;102421.63;5053348;28;20198;-68
2023/05/29 05:16:00;;;;;;;15.33;3.13;;;13.70;64.40;;;16.71;45.65;102424.75;5052532;28;20303;-65
2023/05/29 05:18:28;;;;;;;7.70;2.70;;;13.70;64.40;;;16.75;45.33;102428.75;5053270;28;20666;-64
2023/05/29 05:20:55;;;;;;;11.20;3.03;;;13.80;64.50;;;16.79;45.39;102422.06;5037705;28;20222;-65
2023/05/29 05:23:22;;;;;;;10.03;2.90;;;13.80;64.40;;;16.84;45.15;102421.53;5033172;28;20651;-65
2023/05/29 05:25:49;;;;;;;13.80;3.57;;;13.80;64.00;;;16.88;45.17;102425.50;5033110;28;20230;-65
2023/05/29 05:28:17;;;;;;;10.50;3.43;;;13.90;63.90;;;16.92;45.02;102419.66;5033205;28;20221;-65
2023/05/29 05:30:45;;;;;;;10.03;2.73;;;13.90;63.80;;;16.95;44.93;102421.16;5033250;28;20191;-64
2023/05/29 05:33:12;;;;;;;12.43;3.60;;;13.90;63.60;;;16.99;44.97;102419.81;5032897;28;20269;-64
2023/05/29 05:35:39;;;;;;;8.23;3.07;;;14.00;63.70;;;17.03;45.00;102425.59;5035016;28;20505;-64
2023/05/29 05:38:07;;;;;;;11.67;3.43;;;14.10;63.70;;;17.11;44.60;102414.91;5037780;28;20190;-65
2023/05/29 05:40:34;;;;;;;11.87;3.83;;;14.10;63.60;;;17.19;44.66;102421.00;5051271;28;20689;-63
2023/05/29 05:43:01;;;;;;;11.73;3.10;;;14.20;63.30;;;17.27;44.64;102412.97;5056700;28;20646;-65
2023/05/29 05:45:29;;;;;;;7.83;2.83;;;14.20;63.20;;;17.33;44.30;102406.94;5057256;28;20223;-64
2023/05/29 05:47:57;;;;;;;10.70;2.60;;;14.30;63.00;;;17.39;44.40;102416.88;5057555;28;20249;-65
2023/05/29 05:50:25;;;;;;;8.57;3.27;;;14.30;63.00;;;17.46;44.57;102417.84;5041775;28;20488;-66
2023/05/29 05:52:52;;;;;;;12.00;3.63;;;14.40;63.00;;;17.51;44.25;102418.16;5056183;28;20293;-67
2023/05/29 05:55:19;;;;;;;9.00;2.87;;;14.40;62.80;;;17.55;43.93;102421.28;5057120;28;20292;-64
2023/05/29 05:57:46;;;;;;;15.57;4.23;;;14.50;62.60;;;17.60;43.98;102424.25;5057044;28;20218;-64
2023/05/29 06:00:14;;;;;;;12.53;2.83;;;14.50;62.50;;;17.66;43.75;102425.38;5042843;28;20227;-65
2023/05/29 06:02:44;;;;;;;11.40;3.87;;;14.60;62.80;;;17.72;43.69;102416.66;5055190;28;20285;-66
2023/05/29 06:05:12;;;;;;;9.97;3.57;;;14.60;62.50;;;17.77;43.40;102419.59;5056282;28;20217;-65
2023/05/29 06:07:39;;;;;;;12.67;3.10;;;14.70;62.10;;;17.80;43.38;102420.09;5056628;28;20716;-65
2023/05/29 06:10:07;;;;;;;12.17;3.60;;;14.70;62.10;;;17.82;43.34;102423.38;5056159;28;20193;-65
2023/05/29 06:12:35;;;;;;;15.10;3.23;;;14.70;61.90;;;17.83;43.51;102432.22;5057045;28;20606;-65
2023/05/29 06:15:04;;;;;;;13.77;3.40;;;14.80;62.10;;;17.85;43.12;102430.19;5055975;28;20738;-66
2023/05/29 06:17:31;;;;;;;9.07;3.33;;;14.70;61.70;;;17.86;43.42;102432.66;5056716;28;20197;-65
2023/05/29 06:20:00;;;;;;;12.50;3.70;;;14.80;61.80;;;17.90;43.33;102446.47;5053348;28;20206;-65
2023/05/29 06:22:27;;;;;;;8.80;3.30;;;14.80;61.80;;;17.94;43.52;102442.44;5036704;28;20721;-65
2023/05/29 06:24:54;;;;;;;8.60;3.00;;;14.80;61.90;;;17.99;43.51;102440.88;5035855;28;20303;-65
2023/05/29 06:27:25;;;;;;;8.97;3.23;;;15.00;61.90;;;18.11;43.52;102443.94;5036668;28;20278;-66
2023/05/29 06:29:52;;;;;;;9.67;2.93;;;15.00;61.80;;;18.27;43.00;102446.44;5036682;28;20222;-66
2023/05/29 06:32:20;;;;;;;7.80;2.70;;;15.20;61.60;;;18.38;42.93;102451.28;5035964;28;20610;-65
2023/05/29 06:34:47;;;;;;;11.87;3.50;;;15.30;61.50;;;18.52;42.66;102441.69;5035848;28;20572;-66
2023/05/29 06:37:15;;;;;;;7.03;3.30;;;15.40;61.00;;;18.62;42.35;102442.22;5036359;28;20202;-64
2023/05/29 06:39:44;;;;;;;10.17;3.13;;;15.50;60.50;;;18.70;41.84;102439.47;5044741;28;20300;-66
2023/05/29 06:42:11;;;;;;;9.73;3.40;;;15.70;60.20;;;18.75;41.76;102443.25;5055783;28;20284;-65
2023/05/29 06:44:38;;;;;;;10.97;3.93;;;15.70;59.70;;;18.79;41.73;102439.19;5055886;28;20245;-66
2023/05/29 06:47:06;;;;;;;11.90;3.53;;;15.80;59.60;;;18.79;41.75;102431.16;5055047;28;20192;-65
2023/05/29 06:49:33;;;;;;;8.37;3.27;;;15.90;59.40;;;18.83;41.97;102435.09;5048870;28;20191;-65
2023/05/29 06:52:00;;;;;;;12.27;4.20;;;15.90;59.50;;;18.92;41.80;102433.19;5035842;28;20190;-66
2023/05/29 06:54:29;;;;;;;14.63;3.67;;;15.90;59.50;;;19.01;41.39;102436.56;5035763;28;20686;-64
2023/05/29 06:56:56;;;;;;;12.67;3.83;;;15.90;59.40;;;19.07;41.74;102436.63;5036056;28;20229;-65
2023/05/29 06:59:37;;;;;;;11.20;3.33;;;16.00;59.50;;;19.15;41.37;102443.69;5042297;28;20198;-65
2023/05/29 07:02:05;;;;;;;11.03;4.13;;;16.00;59.30;;;19.21;41.55;102437.56;5055535;28;20215;-66
2023/05/29 07:04:32;;;;;;;11.50;3.97;;;16.10;59.50;;;19.27;41.27;102443.00;5055320;28;20518;-65
2023/05/29 07:06:59;;;;;;;8.37;3.20;;;16.20;59.10;;;19.35;41.32;102439.41;5055362;28;20656;-66
2023/05/29 07:09:27;;;;;;;13.90;4.20;;;16.30;59.10;;;19.47;41.07;102437.88;5055232;28;20280;-64
2023/05/29 07:11:56;;;;;;;10.60;3.27;;;16.30;58.90;;;19.61;40.73;102444.19;5055375;28;20244;-66
2023/05/29 07:14:23;;;;;;;9.63;3.80;;;16.40;59.00;;;19.71;40.72;102440.16;5055102;28;20300;-67
2023/05/29 07:16:50;;;;;;;12.73;3.60;;;16.50;58.50;;;19.77;40.20;102436.72;5055509;28;20609;-67
2023/05/29 07:19:17;;;;;;;8.93;4.03;;;16.60;58.50;;;19.80;40.10;102436.31;5054044;28;20225;-66
2023/05/29 07:21:47;;;;;;;12.20;4.30;;;16.60;58.30;;;19.89;40.14;102448.56;5046534;28;20227;-66
2023/05/29 07:24:14;;;;;;;10.43;4.17;;;16.60;58.00;;;19.95;39.90;102450.44;5035061;28;20233;-65
2023/05/29 07:26:41;;;;;;;7.30;3.27;;;16.70;57.60;;;19.99;39.95;102442.88;5035742;28;20201;-66
2023/05/29 07:29:10;;;;;;;10.83;3.63;;;16.80;57.80;;;20.07;39.59;102451.56;5037680;28;20186;-66
2023/05/29 07:31:40;;;;;;;9.80;3.00;;;16.80;57.50;;;20.15;39.21;102451.44;5055378;28;20281;-66
2023/05/29 07:34:07;;;;;;;7.43;3.30;;;16.90;56.90;;;20.23;39.19;102445.94;5054688;28;20349;-66
2023/05/29 07:36:34;;;;;;;9.00;3.97;;;17.10;56.80;;;20.37;39.03;102451.38;5055014;28;20355;-69
2023/05/29 07:39:01;;;;;;;9.60;3.47;;;17.20;56.90;;;20.49;38.44;102449.81;5053452;28;20559;-66
2023/05/29 07:41:28;;;;;;;14.07;5.27;;;17.30;56.30;;;20.56;38.03;102451.47;5035388;28;20242;-67
2023/05/29 07:43:56;;;;;;;11.53;4.33;;;17.40;55.20;;;20.53;37.55;102459.09;5034756;28;20605;-66
2023/05/29 07:46:24;;;;;;;10.83;3.63;;;17.20;55.10;;;20.50;37.96;102451.44;5035012;28;20248;-66
2023/05/29 07:48:51;;;;;;;10.97;4.07;;;17.20;55.40;;;20.50;37.46;102449.59;5034804;28;20939;-68
2023/05/29 07:51:19;;;;;;;12.97;3.80;;;17.20;54.80;;;20.55;37.68;102449.00;5055058;28;20237;-66
2023/05/29 07:53:46;;;;;;;14.33;4.03;;;17.30;55.20;;;20.62;37.92;102449.88;5054510;28;20224;-67
2023/05/29 07:56:13;;;;;;;9.43;3.37;;;17.30;54.90;;;20.71;37.53;102454.84;5054811;28;20271;-65
2023/05/29 07:58:41;;;;;;;9.20;4.40;;;17.40;55.30;;;20.88;37.87;102439.28;5054328;28;20909;-66
2023/05/29 08:01:08;;;;;;;10.73;4.17;;;17.50;54.90;;;20.93;36.59;102447.53;5041293;28;20221;-65
2023/05/29 08:03:36;;;;;;;13.80;4.17;;;17.50;54.00;;;21.01;36.97;102441.19;5053916;28;20655;-66
2023/05/29 08:06:04;;;;;;;10.40;3.67;;;17.60;54.30;;;21.26;36.54;102448.50;5054280;28;20214;-66
2023/05/29 08:08:31;;;;;;;11.60;3.73;;;17.70;54.30;;;21.84;36.17;102452.31;5053660;28;20608;-66
2023/05/29 08:10:58;;;;;;;10.13;4.63;;;18.00;54.70;;;22.67;35.18;102454.25;5052980;28;20186;-64
2023/05/29 08:13:25;;;;;;;8.37;3.93;;;18.30;53.80;;;23.62;33.51;102449.78;5053716;28;20220;-65
2023/05/29 08:15:53;;;;;;;14.13;4.73;;;18.70;52.60;;;24.38;31.47;102453.06;5044720;28;20690;-65
2023/05/29 08:18:20;;;;;;;11.07;4.07;;;19.10;50.00;;;25.10;30.58;102455.72;5053892;28;20308;-66
2023/05/29 08:20:48;;;;;;;8.70;3.67;;;19.70;49.40;;;25.69;29.62;102457.56;5038362;28;20219;-65
2023/05/29 08:23:16;;;;;;;10.23;4.40;;;20.10;48.20;;;26.50;28.18;102454.88;5033730;28;20190;-64
2023/05/29 08:25:42;;;;;;;10.63;5.60;;;20.60;47.20;;;26.99;28.25;102458.03;5033553;28;20210;-66
2023/05/29 08:28:10;;;;;;;11.40;5.43;;;21.10;46.30;;;27.47;27.38;102461.94;5034029;28;20283;-67
2023/05/29 08:30:37;;;;;;;13.10;4.60;;;21.60;44.80;;;27.83;26.21;102455.22;5033691;28;20651;-65
2023/05/29 08:33:04;;;;;;;10.30;4.90;;;22.00;42.40;;;28.24;26.39;102461.25;5033313;28;20191;-64
2023/05/29 08:35:31;;;;;;;8.70;3.73;;;22.40;43.00;;;28.69;25.57;102448.34;5051171;28;20230;-65
2023/05/29 08:37:59;;;;;;;10.07;4.00;;;22.80;41.90;;;29.16;25.13;102456.72;5053418;28;20200;-66
2023/05/29 08:40:26;;;;;;;8.63;3.90;;;23.20;40.90;;;29.69;24.46;102451.22;5042306;28;20273;-66
2023/05/29 08:43:01;;;;;;;12.40;4.50;;;23.60;40.10;;;30.04;23.60;102459.69;5033717;28;20285;-65
2023/05/29 08:45:32;;;;;;;7.53;3.40;;;23.90;38.40;;;30.22;23.31;102450.25;5033967;28;20209;-65
2023/05/29 08:48:01;;;;;;;8.40;3.57;;;24.20;38.50;;;30.71;23.33;102462.47;5033894;28;20175;-65
2023/05/29 08:50:28;;;;;;;7.93;4.03;;;24.50;38.60;;;30.98;21.63;102456.88;5034153;28;20281;-65
2023/05/29 08:52:58;;;;;;;6.80;3.33;;;24.70;35.50;;;31.19;21.60;102457.75;5033925;28;20281;-65
2023/05/29 08:55:26;;;;;;;6.60;3.73;;;24.90;36.00;;;31.51;20.57;102460.22;5033575;28;20294;-65
2023/05/29 08:57:53;;;;;;;10.77;4.57;;;25.10;33.40;;;31.68;20.47;102467.03;5038783;28;20201;-65
2023/05/29 09:00:22;;;;;;;10.63;5.63;;;25.30;33.40;;;31.68;20.90;102460.78;5052731;28;20217;-64
2023/05/29 09:02:49;;;;;;;10.57;5.53;;;25.40;32.90;;;31.68;20.60;102461.59;5052337;28;20219;-65
2023/05/29 09:05:17;;;;;;;9.87;4.40;;;25.40;32.20;;;31.70;20.19;102467.59;5052793;28;20225;-65
2023/05/29 09:07:44;;;;;;;13.27;4.40;;;25.40;32.70;;;32.13;20.73;102457.19;5053050;28;20224;-64
2023/05/29 09:10:13;;;;;;;11.30;4.40;;;25.60;32.80;;;32.74;20.57;102458.59;5051954;28;20484;-64
2023/05/29 09:12:40;;;;;;;12.93;4.50;;;25.90;33.50;;;33.38;19.69;102456.56;5053197;28;20193;-66
2023/05/29 09:15:18;;;;;;;9.63;3.83;;;26.30;32.80;;;33.75;19.24;102452.47;5052485;28;20217;-66
2023/05/29 09:17:51;;;;;;;8.57;4.30;;;26.50;31.90;;;33.60;19.32;102445.22;5053546;28;20782;-64
2023/05/29 09:20:23;;;;;;;9.00;4.37;;;26.40;32.00;;;33.78;18.74;102446.44;5052239;28;20704;-65
2023/05/29 09:22:55;;;;;;;8.13;4.13;;;26.60;31.00;;;33.84;18.52;102440.59;5052664;28;20273;-65
2023/05/29 09:25:30;;;;;;;11.90;4.43;;;26.80;30.70;;;33.83;18.55;102446.34;5053289;28;20679;-65
2023/05/29 09:28:00;;;;;;;9.00;3.77;;;26.70;30.00;;;33.89;18.67;102447.94;5053271;28;20260;-65
2023/05/29 09:30:38;;;;;;;8.27;3.87;;;26.80;30.10;;;33.96;18.03;102454.69;5044708;28;20217;-65
2023/05/29 09:33:07;;;;;;;10.23;4.23;;;26.90;29.40;;;33.91;18.04;102453.94;5053271;28;20253;-64
2023/05/29 09:35:36;;;;;;;9.60;4.00;;;27.00;29.50;;;34.23;17.81;102459.63;5053040;28;20591;-64
2023/05/29 09:38:04;;;;;;;8.10;4.30;;;27.20;29.70;;;34.32;17.81;102449.69;5053728;28;20200;-65
2023/05/29 09:40:35;;;;;;;10.67;4.27;;;27.30;29.30;;;34.86;17.42;102456.66;5037343;28;20295;-67
2023/05/29 09:43:04;;;;;;;8.97;3.97;;;27.50;29.10;;;35.32;17.16;102446.66;5038466;28;20229;-64
2023/05/29 09:45:32;;;;;;;10.23;4.10;;;27.80;29.60;;;35.61;16.98;102441.78;5053230;28;20206;-64
2023/05/29 09:47:59;;;;;;;6.63;4.17;;;27.90;28.80;;;35.86;16.53;102441.31;5053036;28;20186;-63
2023/05/29 09:50:27;;;;;;;9.27;4.73;;;28.20;28.50;;;35.88;16.95;102447.31;5052511;28;20272;-66
2023/05/29 09:52:57;;;;;;;10.70;4.40;;;28.30;28.20;;;35.90;17.00;102445.09;5052263;28;20637;-65
2023/05/29 09:55:26;;;;;;;10.57;4.30;;;28.30;27.70;;;35.82;16.51;102445.78;5052996;28;20291;-64
2023/05/29 09:57:55;;;;;;;10.20;4.73;;;28.30;28.00;;;35.68;17.22;102433.19;5052813;28;20225;-64
2023/05/29 10:00:23;;;;;;;10.53;4.40;;;28.30;28.30;;;35.48;17.26;102437.06;5051653;28;20225;-66
2023/05/29 10:02:50;;;;;;;6.60;4.07;;;28.20;28.50;;;35.23;16.72;102441.03;5051594;28;20336;-65
2023/05/29 10:05:18;;;;;;;7.30;3.80;;;28.10;28.50;;;35.23;17.21;102445.72;5053240;28;20217;-65
2023/05/29 10:07:49;;;;;;;13.60;4.80;;;28.10;28.80;;;35.40;17.72;102445.94;5052845;28;20552;-65
2023/05/29 10:10:18;;;;;;;10.93;4.37;;;28.20;28.70;;;35.70;17.17;102439.16;5052413;28;20235;-66
2023/05/29 10:12:49;;;;;;;13.80;4.33;;;28.30;28.40;;;35.97;17.02;102444.66;5053136;28;20197;-65
2023/05/29 10:15:19;;;;;;;12.60;6.17;;;28.40;28.30;;;36.09;16.03;102439.53;5052205;28;20263;-64